Time;durP1;ratioP1;P1;durP2;ratioP2;P2;SDS_P1;SDS_P2;PMS_P1;PMS_P2;Temp;Humidity;BMP_temperature;BMP_pressure;BME280_temperature;BME280_humidity;BME280_pressure;Samples;Min_cycle;Max_cycle;Signal;HPM_P1;HPM_P2
2022/01/17 00:01:30;;;;;;;11.93;5.50;;;;;;;;;;5068853;28;20044;-69
2022/01/17 00:03:56;;;;;;;8.32;4.75;;;;;;;;;;5070911;28;20032;-69
2022/01/17 00:06:21;;;;;;;7.57;4.72;;;;;;;;;;5069326;28;20387;-68
2022/01/17 00:08:48;;;;;;;7.32;4.20;;;;;;;;;;5052268;28;20409;-69
2022/01/17 00:11:15;;;;;;;6.43;4.40;;;;;;;;;;5069365;28;20032;-69
2022/01/17 00:13:40;;;;;;;8.60;4.38;;;;;;;;;;5036386;28;20470;-68
2022/01/17 00:21:05;;;;;;;5.80;4.05;;;;;;;;;;5070810;28;20037;-68
2022/01/17 00:23:31;;;;;;;7.80;4.35;;;;;;;;;;5069446;28;20039;-69
2022/01/17 00:25:56;;;;;;;10.23;5.05;;;;;;;;;;5070271;28;20021;-68
2022/01/17 00:28:22;;;;;;;6.45;4.40;;;;;;;;;;5068662;28;20090;-69
2022/01/17 00:30:47;;;;;;;5.72;3.97;;;;;;;;;;5051227;28;20064;-69
2022/01/17 00:33:12;;;;;;;7.38;4.65;;;;;;;;;;5070656;28;20035;-68
2022/01/17 00:35:38;;;;;;;6.82;3.92;;;;;;;;;;5070360;28;20029;-69
2022/01/17 00:38:03;;;;;;;6.97;3.95;;;;;;;;;;5068878;28;20029;-69
2022/01/17 00:40:29;;;;;;;6.32;3.95;;;;;;;;;;5069833;28;20032;-68
2022/01/17 00:42:54;;;;;;;4.75;3.65;;;;;;;;;;5069692;28;20174;-68
2022/01/17 00:45:26;;;;;;;6.65;3.75;;;;;;;;;;5070263;28;20103;-68
2022/01/17 00:47:51;;;;;;;7.25;3.83;;;;;;;;;;5068764;28;20110;-68
2022/01/17 00:50:16;;;;;;;4.75;3.33;;;;;;;;;;5069602;28;20126;-68
2022/01/17 00:52:42;;;;;;;8.23;4.20;;;;;;;;;;5052422;28;20036;-69
2022/01/17 00:55:08;;;;;;;8.25;4.50;;;;;;;;;;5070017;28;20028;-68
2022/01/17 00:57:33;;;;;;;4.45;3.33;;;;;;;;;;5069590;28;20047;-69
2022/01/17 00:59:58;;;;;;;4.93;3.38;;;;;;;;;;5069447;28;20074;-68
2022/01/17 01:02:24;;;;;;;5.40;3.83;;;;;;;;;;5068976;28;20097;-68
2022/01/17 01:04:49;;;;;;;9.68;3.80;;;;;;;;;;5069819;28;20021;-69
2022/01/17 01:07:14;;;;;;;12.32;4.20;;;;;;;;;;5068223;28;20535;-68
2022/01/17 01:09:52;;;;;;;5.32;4.07;;;;;;;;;;5069782;28;20029;-68
2022/01/17 01:12:18;;;;;;;6.88;4.40;;;;;;;;;;5069521;28;20032;-68
2022/01/17 01:14:43;;;;;;;7.45;4.13;;;;;;;;;;5051610;28;20394;-69
2022/01/17 01:17:19;;;;;;;8.57;4.10;;;;;;;;;;5068314;28;20056;-68
2022/01/17 01:19:45;;;;;;;10.68;4.05;;;;;;;;;;5069361;28;20548;-69
2022/01/17 01:27:42;;;;;;;8.43;4.05;;;;;;;;;;5067958;28;20066;-68
2022/01/17 01:30:11;;;;;;;6.40;4.25;;;;;;;;;;5067462;28;20040;-69
2022/01/17 01:32:44;;;;;;;7.20;4.25;;;;;;;;;;5067580;28;20027;-68
2022/01/17 01:35:10;;;;;;;6.90;4.93;;;;;;;;;;5068872;28;20025;-69
2022/01/17 01:37:35;;;;;;;9.60;5.25;;;;;;;;;;5069166;28;20023;-69
2022/01/17 01:40:00;;;;;;;13.77;5.97;;;;;;;;;;5067530;28;20067;-69
2022/01/17 01:42:29;;;;;;;12.27;5.75;;;;;;;;;;5067087;28;20070;-68
2022/01/17 01:44:54;;;;;;;13.70;5.85;;;;;;;;;;5069071;28;20489;-69
2022/01/17 01:47:21;;;;;;;10.57;6.25;;;;;;;;;;5067754;28;20028;-69
2022/01/17 01:49:47;;;;;;;11.13;6.15;;;;;;;;;;5067196;28;20027;-68
2022/01/17 01:52:12;;;;;;;13.18;6.15;;;;;;;;;;5068614;28;20029;-68
2022/01/17 01:54:37;;;;;;;12.07;6.10;;;;;;;;;;5050901;28;20063;-69
2022/01/17 01:57:03;;;;;;;13.13;6.30;;;;;;;;;;5068842;28;20113;-69
2022/01/17 01:59:28;;;;;;;9.65;5.78;;;;;;;;;;5068508;28;20078;-69
2022/01/17 02:01:53;;;;;;;8.27;5.55;;;;;;;;;;5067357;28;20032;-69
2022/01/17 02:04:19;;;;;;;11.80;6.60;;;;;;;;;;5051053;28;20024;-69
2022/01/17 02:06:44;;;;;;;9.32;5.85;;;;;;;;;;5067293;28;20104;-68
2022/01/17 02:09:09;;;;;;;10.00;6.18;;;;;;;;;;5066935;28;20487;-68
2022/01/17 02:11:35;;;;;;;10.45;6.07;;;;;;;;;;5067253;28;20024;-68
2022/01/17 02:14:01;;;;;;;10.90;6.35;;;;;;;;;;5066367;28;20021;-68
2022/01/17 02:16:26;;;;;;;10.07;6.00;;;;;;;;;;5067146;28;20028;-69
2022/01/17 02:18:51;;;;;;;9.35;5.95;;;;;;;;;;5067018;28;20437;-68
2022/01/17 02:21:32;;;;;;;10.32;6.10;;;;;;;;;;5066866;28;20060;-69
2022/01/17 02:23:58;;;;;;;10.50;5.85;;;;;;;;;;5067893;28;20027;-69
2022/01/17 02:26:23;;;;;;;13.00;6.13;;;;;;;;;;5067065;28;20021;-69
2022/01/17 02:28:50;;;;;;;10.68;5.85;;;;;;;;;;5066592;28;20021;-68
2022/01/17 02:31:16;;;;;;;9.20;5.65;;;;;;;;;;5067099;28;20033;-68
2022/01/17 02:33:41;;;;;;;11.43;5.90;;;;;;;;;;5049851;28;20021;-69
2022/01/17 02:36:07;;;;;;;9.77;6.03;;;;;;;;;;5068335;28;20394;-69
2022/01/17 02:38:32;;;;;;;9.32;5.50;;;;;;;;;;5050137;28;20024;-68
2022/01/17 02:40:57;;;;;;;9.05;5.57;;;;;;;;;;5067482;28;20154;-68
2022/01/17 02:43:24;;;;;;;11.23;5.72;;;;;;;;;;5066192;28;20025;-68
2022/01/17 02:48:19;;;;;;;9.82;6.18;;;;;;;;;;5066685;28;20522;-68
2022/01/17 02:50:44;;;;;;;10.20;5.68;;;;;;;;;;5049661;28;20024;-69
2022/01/17 02:53:10;;;;;;;11.85;6.18;;;;;;;;;;5049858;28;20196;-69
2022/01/17 02:55:36;;;;;;;9.43;5.85;;;;;;;;;;5066397;28;20446;-68
2022/01/17 02:58:01;;;;;;;10.77;5.20;;;;;;;;;;5050144;28;20328;-69
2022/01/17 03:00:26;;;;;;;13.43;6.18;;;;;;;;;;5065093;28;20070;-68
2022/01/17 03:02:52;;;;;;;10.07;5.78;;;;;;;;;;5066807;28;20052;-68
2022/01/17 03:05:17;;;;;;;10.98;5.68;;;;;;;;;;5049518;28;20037;-68
2022/01/17 03:07:43;;;;;;;8.75;5.32;;;;;;;;;;5066910;28;20032;-68
2022/01/17 03:10:17;;;;;;;9.25;5.10;;;;;;;;;;5066694;28;20423;-69
2022/01/17 03:12:43;;;;;;;8.65;5.25;;;;;;;;;;5067529;28;20029;-69
2022/01/17 03:15:09;;;;;;;9.02;5.07;;;;;;;;;;5067303;28;20032;-69
2022/01/17 03:17:34;;;;;;;9.65;5.85;;;;;;;;;;5066462;28;20037;-68
2022/01/17 03:19:59;;;;;;;8.27;5.75;;;;;;;;;;5068111;28;20024;-69
2022/01/17 03:22:25;;;;;;;8.48;5.55;;;;;;;;;;5067587;28;20337;-69
2022/01/17 03:24:50;;;;;;;13.20;6.03;;;;;;;;;;5067298;28;20020;-68
2022/01/17 03:27:15;;;;;;;9.65;5.82;;;;;;;;;;5067583;28;20052;-68
2022/01/17 03:29:41;;;;;;;9.98;5.95;;;;;;;;;;5067701;28;20025;-68
2022/01/17 03:32:06;;;;;;;8.95;5.88;;;;;;;;;;5065131;28;20040;-69
2022/01/17 03:34:32;;;;;;;8.65;5.90;;;;;;;;;;5066208;28;20502;-69
2022/01/17 03:36:57;;;;;;;11.45;6.45;;;;;;;;;;5067366;28;20029;-69
2022/01/17 03:39:23;;;;;;;9.88;5.97;;;;;;;;;;5067721;28;20096;-69
2022/01/17 03:41:48;;;;;;;9.50;6.10;;;;;;;;;;5066035;28;20433;-68
2022/01/17 03:44:13;;;;;;;9.95;5.80;;;;;;;;;;5067572;28;20439;-69
2022/01/17 03:46:39;;;;;;;9.65;5.97;;;;;;;;;;5067182;28;20028;-69
2022/01/17 03:49:04;;;;;;;9.07;6.22;;;;;;;;;;5067535;28;20044;-69
2022/01/17 03:51:29;;;;;;;8.25;5.55;;;;;;;;;;5067568;28;20025;-69
2022/01/17 03:53:55;;;;;;;7.57;5.30;;;;;;;;;;5066010;28;20037;-69
2022/01/17 03:56:20;;;;;;;9.77;6.28;;;;;;;;;;5065627;28;20021;-69
2022/01/17 03:58:46;;;;;;;9.93;6.32;;;;;;;;;;5069840;28;20028;-69
2022/01/17 04:01:11;;;;;;;8.02;5.38;;;;;;;;;;5052253;28;20566;-69
2022/01/17 04:03:38;;;;;;;10.80;6.20;;;;;;;;;;5070631;28;20150;-69
2022/01/17 04:06:03;;;;;;;7.57;5.40;;;;;;;;;;5072758;28;20024;-68
2022/01/17 04:08:29;;;;;;;8.57;5.53;;;;;;;;;;5091071;28;20024;-69
2022/01/17 04:10:54;;;;;;;9.27;6.20;;;;;;;;;;5074820;28;20029;-68
2022/01/17 04:13:19;;;;;;;7.20;5.32;;;;;;;;;;5090841;28;20028;-69
2022/01/17 04:15:45;;;;;;;10.35;5.72;;;;;;;;;;5089725;28;20426;-69
2022/01/17 04:18:10;;;;;;;7.82;5.30;;;;;;;;;;5090680;28;20146;-69
2022/01/17 04:20:36;;;;;;;7.28;4.75;;;;;;;;;;5089692;28;20027;-69
2022/01/17 04:23:03;;;;;;;7.70;5.07;;;;;;;;;;5089348;28;20059;-69
2022/01/17 04:25:31;;;;;;;9.10;5.50;;;;;;;;;;5073748;28;20040;-70
2022/01/17 04:27:57;;;;;;;10.40;5.28;;;;;;;;;;5057024;28;20029;-70
2022/01/17 04:30:23;;;;;;;6.63;5.10;;;;;;;;;;5057663;28;20046;-70
2022/01/17 04:32:48;;;;;;;9.35;5.40;;;;;;;;;;5059558;28;20419;-70
2022/01/17 04:35:20;;;;;;;6.35;4.72;;;;;;;;;;5042379;28;20092;-70
2022/01/17 04:37:45;;;;;;;7.47;4.90;;;;;;;;;;5059305;28;20060;-70
2022/01/17 04:40:11;;;;;;;8.32;5.32;;;;;;;;;;5059553;28;20028;-70
2022/01/17 04:42:43;;;;;;;8.60;5.20;;;;;;;;;;5056114;28;20043;-70
2022/01/17 04:45:10;;;;;;;7.63;4.93;;;;;;;;;;5055695;28;20029;-70
2022/01/17 04:47:37;;;;;;;9.35;5.25;;;;;;;;;;5055479;28;20036;-70
2022/01/17 04:50:07;;;;;;;5.93;4.43;;;;;;;;;;5055357;28;20106;-70
2022/01/17 04:52:34;;;;;;;7.00;4.32;;;;;;;;;;5056028;28;21806;-70
2022/01/17 04:55:02;;;;;;;6.97;4.50;;;;;;;;;;5053702;28;20111;-70
2022/01/17 04:57:27;;;;;;;6.13;4.13;;;;;;;;;;5053563;28;20025;-69
2022/01/17 04:59:52;;;;;;;6.32;4.40;;;;;;;;;;5050858;28;20040;-70
2022/01/17 05:02:18;;;;;;;6.57;4.10;;;;;;;;;;5037715;28;20068;-69
2022/01/17 05:04:45;;;;;;;6.53;4.35;;;;;;;;;;5052624;28;20182;-70
2022/01/17 05:07:11;;;;;;;5.32;4.00;;;;;;;;;;5038622;28;20333;-70
2022/01/17 05:09:38;;;;;;;4.53;3.92;;;;;;;;;;5053481;28;20423;-70
2022/01/17 05:12:04;;;;;;;6.57;4.32;;;;;;;;;;5056418;28;20039;-70
2022/01/17 05:14:29;;;;;;;7.80;3.72;;;;;;;;;;5052690;28;20029;-70
2022/01/17 05:17:03;;;;;;;5.70;3.47;;;;;;;;;;5055123;28;20032;-70
2022/01/17 05:22:12;;;;;;;5.80;3.85;;;;;;;;;;5054527;28;20044;-70
2022/01/17 05:24:38;;;;;;;4.65;3.25;;;;;;;;;;5051194;28;20044;-70
2022/01/17 05:27:03;;;;;;;4.65;3.92;;;;;;;;;;5053318;28;20079;-69
2022/01/17 05:29:29;;;;;;;4.30;3.45;;;;;;;;;;5051314;28;20031;-69
2022/01/17 05:31:54;;;;;;;4.85;3.90;;;;;;;;;;5052299;28;20059;-70
2022/01/17 05:34:19;;;;;;;4.63;3.60;;;;;;;;;;5054367;28;20114;-69
2022/01/17 05:36:45;;;;;;;11.02;3.78;;;;;;;;;;5051931;28;20031;-69
2022/01/17 05:39:10;;;;;;;9.40;3.92;;;;;;;;;;5053798;28;20060;-69
2022/01/17 05:41:35;;;;;;;4.53;3.60;;;;;;;;;;5051801;28;20070;-70
2022/01/17 05:44:00;;;;;;;4.70;3.15;;;;;;;;;;5051851;28;20061;-69
2022/01/17 05:46:26;;;;;;;4.82;3.50;;;;;;;;;;5050549;28;20140;-73
2022/01/17 05:48:51;;;;;;;10.63;3.88;;;;;;;;;;5051696;28;20390;-73
2022/01/17 05:51:16;;;;;;;4.05;3.15;;;;;;;;;;5050407;28;20064;-73
2022/01/17 05:53:42;;;;;;;5.13;3.40;;;;;;;;;;5037038;28;20091;-73
2022/01/17 05:56:07;;;;;;;4.72;3.20;;;;;;;;;;5050064;28;20143;-72
2022/01/17 05:58:32;;;;;;;3.55;3.10;;;;;;;;;;5065746;28;20115;-73
2022/01/17 06:00:58;;;;;;;5.78;4.03;;;;;;;;;;5048535;28;20048;-73
2022/01/17 06:03:25;;;;;;;5.20;3.63;;;;;;;;;;5034219;28;20464;-73
2022/01/17 06:05:51;;;;;;;6.65;3.65;;;;;;;;;;5048109;28;20467;-73
2022/01/17 06:08:16;;;;;;;4.07;3.38;;;;;;;;;;5033871;28;20043;-73
2022/01/17 06:10:41;;;;;;;5.18;3.67;;;;;;;;;;5052012;28;20484;-73
2022/01/17 06:13:07;;;;;;;4.72;3.50;;;;;;;;;;5051834;28;20040;-72
2022/01/17 06:15:32;;;;;;;5.07;3.30;;;;;;;;;;5049486;28;20059;-73
2022/01/17 06:17:57;;;;;;;4.38;3.60;;;;;;;;;;5049661;28;20574;-73
2022/01/17 06:20:23;;;;;;;6.05;3.90;;;;;;;;;;5048531;28;20458;-73
2022/01/17 06:22:48;;;;;;;5.60;4.10;;;;;;;;;;5052094;28;20281;-72
2022/01/17 06:25:13;;;;;;;5.38;3.80;;;;;;;;;;5049345;28;20662;-73
2022/01/17 06:27:39;;;;;;;4.55;3.88;;;;;;;;;;5048249;28;20138;-73
2022/01/17 06:30:05;;;;;;;6.07;3.85;;;;;;;;;;5050761;28;20795;-72
2022/01/17 06:32:31;;;;;;;4.82;3.88;;;;;;;;;;5020417;28;20571;-73
2022/01/17 06:34:56;;;;;;;4.55;3.50;;;;;;;;;;5047800;28;20119;-73
2022/01/17 06:37:21;;;;;;;3.40;3.00;;;;;;;;;;5050398;28;20029;-73
2022/01/17 06:39:47;;;;;;;5.60;4.10;;;;;;;;;;5032906;28;20032;-73
2022/01/17 06:42:12;;;;;;;4.50;3.35;;;;;;;;;;5048497;28;20123;-73
2022/01/17 06:44:37;;;;;;;5.13;3.63;;;;;;;;;;5033448;28;20037;-72
2022/01/17 06:47:03;;;;;;;6.22;3.88;;;;;;;;;;5048617;28;20056;-73
2022/01/17 06:49:28;;;;;;;5.07;4.18;;;;;;;;;;5051582;28;20036;-73
2022/01/17 06:51:54;;;;;;;8.20;4.13;;;;;;;;;;5049119;28;20109;-73
2022/01/17 06:54:19;;;;;;;5.30;4.00;;;;;;;;;;5050137;28;20131;-73
2022/01/17 06:56:44;;;;;;;5.57;3.80;;;;;;;;;;5044831;28;20505;-73
2022/01/17 06:59:11;;;;;;;5.22;4.05;;;;;;;;;;5043958;28;20059;-73
2022/01/17 07:01:38;;;;;;;5.35;3.78;;;;;;;;;;5047525;28;20122;-73
2022/01/17 07:04:04;;;;;;;6.72;4.05;;;;;;;;;;5044464;28;20423;-73
2022/01/17 07:06:29;;;;;;;4.20;3.65;;;;;;;;;;5049166;28;20174;-73
2022/01/17 07:08:54;;;;;;;6.68;4.22;;;;;;;;;;5045257;28;20082;-72
2022/01/17 07:11:20;;;;;;;6.30;3.90;;;;;;;;;;5048469;28;20115;-73
2022/01/17 07:13:45;;;;;;;5.55;3.35;;;;;;;;;;5051919;28;20038;-73
2022/01/17 07:16:10;;;;;;;4.93;3.70;;;;;;;;;;5050057;28;20039;-73
2022/01/17 07:18:36;;;;;;;3.95;3.55;;;;;;;;;;5049098;28;20136;-73
2022/01/17 07:21:01;;;;;;;4.03;3.53;;;;;;;;;;5049585;28;20060;-72
2022/01/17 07:23:26;;;;;;;6.47;4.13;;;;;;;;;;5051273;28;20028;-72
2022/01/17 07:25:52;;;;;;;5.65;3.97;;;;;;;;;;5052758;28;20119;-72
2022/01/17 07:28:17;;;;;;;6.15;4.05;;;;;;;;;;5034306;28;20588;-72
2022/01/17 07:30:42;;;;;;;6.50;4.32;;;;;;;;;;5050831;28;20072;-73
2022/01/17 07:33:08;;;;;;;4.68;3.67;;;;;;;;;;5054257;28;20123;-73
2022/01/17 07:35:34;;;;;;;5.15;4.10;;;;;;;;;;5050698;28;20036;-72
2022/01/17 07:37:59;;;;;;;4.65;3.53;;;;;;;;;;5037848;28;20067;-73
2022/01/17 07:40:24;;;;;;;6.22;3.90;;;;;;;;;;5056510;28;20040;-73
2022/01/17 07:42:50;;;;;;;5.07;3.70;;;;;;;;;;5051518;28;20116;-73
2022/01/17 07:45:17;;;;;;;6.18;4.15;;;;;;;;;;5053377;28;20056;-73
2022/01/17 07:47:55;;;;;;;4.75;3.83;;;;;;;;;;5052604;28;20476;-73
2022/01/17 07:50:22;;;;;;;7.07;4.00;;;;;;;;;;5051146;28;20081;-73
2022/01/17 07:52:50;;;;;;;6.88;4.40;;;;;;;;;;5050240;28;20125;-72
2022/01/17 07:55:16;;;;;;;6.90;4.50;;;;;;;;;;5038363;28;20041;-72
2022/01/17 07:57:41;;;;;;;6.97;4.75;;;;;;;;;;5051931;28;20031;-73
2022/01/17 08:00:08;;;;;;;6.40;4.40;;;;;;;;;;5051875;28;20395;-72
2022/01/17 08:02:34;;;;;;;7.93;4.53;;;;;;;;;;5054650;28;20125;-73
2022/01/17 08:04:59;;;;;;;6.72;4.63;;;;;;;;;;5037748;28;20120;-72
2022/01/17 08:07:24;;;;;;;5.63;4.60;;;;;;;;;;5051840;28;20040;-72
2022/01/17 08:09:50;;;;;;;6.40;4.50;;;;;;;;;;5053995;28;20032;-73
2022/01/17 08:12:15;;;;;;;6.20;4.32;;;;;;;;;;5053234;28;20625;-73
2022/01/17 08:14:41;;;;;;;7.25;4.25;;;;;;;;;;5052680;28;20550;-73
2022/01/17 08:17:06;;;;;;;7.80;4.57;;;;;;;;;;5051991;28;20129;-72
2022/01/17 08:19:31;;;;;;;6.25;4.80;;;;;;;;;;5052922;28;20033;-72
2022/01/17 08:21:57;;;;;;;8.40;4.70;;;;;;;;;;5067471;28;20028;-72
2022/01/17 08:24:23;;;;;;;6.00;4.40;;;;;;;;;;5053345;28;20044;-72
2022/01/17 08:26:50;;;;;;;7.18;4.18;;;;;;;;;;5051537;28;20041;-72
2022/01/17 08:29:15;;;;;;;9.27;5.32;;;;;;;;;;5036856;28;20040;-73
2022/01/17 08:31:46;;;;;;;10.82;5.22;;;;;;;;;;5033553;28;20048;-72
2022/01/17 08:34:11;;;;;;;6.45;4.72;;;;;;;;;;5052972;28;20571;-72
2022/01/17 08:36:37;;;;;;;7.95;4.50;;;;;;;;;;5052058;28;20121;-72
2022/01/17 08:39:02;;;;;;;7.90;5.07;;;;;;;;;;5050325;28;20127;-72
2022/01/17 08:41:27;;;;;;;7.88;4.90;;;;;;;;;;5050610;28;20029;-73
2022/01/17 08:43:53;;;;;;;6.45;4.65;;;;;;;;;;5050850;28;20064;-72
2022/01/17 08:46:18;;;;;;;8.70;4.68;;;;;;;;;;5052150;28;20202;-73
2022/01/17 08:48:43;;;;;;;8.23;5.15;;;;;;;;;;5051685;28;20743;-73
2022/01/17 08:51:09;;;;;;;7.15;4.93;;;;;;;;;;5051601;28;20054;-73
2022/01/17 08:53:35;;;;;;;8.02;4.50;;;;;;;;;;5053086;28;20522;-72
2022/01/17 08:56:00;;;;;;;6.47;4.65;;;;;;;;;;5050281;28;20059;-72
2022/01/17 08:58:25;;;;;;;7.53;4.93;;;;;;;;;;5051997;28;20047;-72
2022/01/17 09:00:51;;;;;;;7.35;4.32;;;;;;;;;;5050037;28;20139;-73
2022/01/17 09:03:16;;;;;;;6.75;4.78;;;;;;;;;;5038496;28;20120;-73
2022/01/17 09:05:42;;;;;;;6.88;4.20;;;;;;;;;;5036307;28;20418;-72
2022/01/17 09:08:08;;;;;;;8.73;4.82;;;;;;;;;;5053275;28;20077;-72
2022/01/17 09:10:34;;;;;;;11.18;5.28;;;;;;;;;;5050647;28;20032;-72
2022/01/17 09:12:59;;;;;;;8.73;5.50;;;;;;;;;;5051154;28;20473;-72
2022/01/17 09:15:25;;;;;;;7.70;5.25;;;;;;;;;;5050676;28;20059;-73
2022/01/17 09:17:50;;;;;;;9.90;5.80;;;;;;;;;;5049816;28;20024;-72
2022/01/17 09:20:15;;;;;;;9.25;5.40;;;;;;;;;;5052568;28;20483;-72
2022/01/17 09:22:41;;;;;;;9.15;5.03;;;;;;;;;;5051915;28;20559;-73
2022/01/17 09:25:07;;;;;;;9.07;5.80;;;;;;;;;;5068250;28;20127;-73
2022/01/17 09:27:33;;;;;;;6.65;5.30;;;;;;;;;;5051588;28;20032;-72
2022/01/17 09:29:59;;;;;;;7.78;4.97;;;;;;;;;;5051597;28;20060;-72
2022/01/17 09:32:24;;;;;;;7.97;5.60;;;;;;;;;;5065446;28;20037;-72
2022/01/17 09:34:49;;;;;;;10.27;5.88;;;;;;;;;;5055228;28;20194;-72
2022/01/17 09:37:15;;;;;;;9.80;5.60;;;;;;;;;;5051361;28;20543;-72
2022/01/17 09:39:40;;;;;;;6.38;4.63;;;;;;;;;;5051179;28;20066;-72
2022/01/17 09:42:06;;;;;;;7.85;4.90;;;;;;;;;;5052243;28;20072;-73
2022/01/17 09:44:32;;;;;;;8.98;4.85;;;;;;;;;;5050116;28;20090;-72
2022/01/17 09:46:58;;;;;;;11.02;4.70;;;;;;;;;;5049487;28;20483;-72
2022/01/17 09:50:09;;;;;;;7.25;4.75;;;;;;;;;;5051143;28;20156;-72
2022/01/17 09:54:55;;;;;;;8.57;4.85;;;;;;;;;;5050265;28;20039;-72
2022/01/17 09:57:21;;;;;;;6.80;4.10;;;;;;;;;;5052441;28;20021;-73
2022/01/17 09:59:46;;;;;;;6.70;4.50;;;;;;;;;;5066039;28;20098;-73
2022/01/17 10:02:13;;;;;;;8.00;4.63;;;;;;;;;;5049822;28;20469;-73
2022/01/17 10:04:38;;;;;;;7.43;4.47;;;;;;;;;;5051504;28;20308;-72
2022/01/17 10:07:05;;;;;;;7.88;4.68;;;;;;;;;;5052306;28;20036;-72
2022/01/17 10:09:33;;;;;;;8.70;4.10;;;;;;;;;;5066457;28;20473;-72
2022/01/17 10:11:59;;;;;;;7.32;4.65;;;;;;;;;;5035286;28;20028;-72
2022/01/17 10:14:25;;;;;;;7.15;4.40;;;;;;;;;;5049137;28;20039;-72
2022/01/17 10:16:51;;;;;;;6.93;4.35;;;;;;;;;;5050564;28;20021;-72
2022/01/17 10:19:16;;;;;;;5.22;3.90;;;;;;;;;;5066333;28;20056;-73
2022/01/17 10:21:54;;;;;;;5.13;4.00;;;;;;;;;;5050300;28;20034;-72
2022/01/17 10:35:22;;;;;;;7.78;4.88;;;;;;;;;;5049856;28;20413;-72
2022/01/17 10:37:55;;;;;;;6.55;4.47;;;;;;;;;;5042487;28;20076;-72
2022/01/17 10:40:20;;;;;;;6.65;4.28;;;;;;;;;;5049857;28;20065;-72
2022/01/17 10:42:47;;;;;;;9.50;4.80;;;;;;;;;;5048313;28;20554;-72
2022/01/17 10:45:14;;;;;;;7.30;4.78;;;;;;;;;;5049477;28;20040;-73
2022/01/17 10:47:43;;;;;;;7.00;4.03;;;;;;;;;;5038126;28;20113;-72
2022/01/17 10:50:18;;;;;;;6.22;4.25;;;;;;;;;;5050490;28;20025;-72
2022/01/17 10:52:47;;;;;;;9.65;4.80;;;;;;;;;;5048508;28;20502;-72
2022/01/17 10:55:12;;;;;;;7.15;3.80;;;;;;;;;;5052697;28;20139;-73
2022/01/17 10:57:40;;;;;;;6.28;4.65;;;;;;;;;;5049260;28;20448;-73
2022/01/17 11:00:17;;;;;;;6.95;4.78;;;;;;;;;;5051704;28;20036;-72
2022/01/17 11:02:45;;;;;;;7.78;4.72;;;;;;;;;;5050089;28;20098;-72
2022/01/17 11:05:11;;;;;;;5.75;4.22;;;;;;;;;;5047694;28;20036;-72
2022/01/17 11:07:38;;;;;;;5.28;4.40;;;;;;;;;;5052228;28;20025;-72
2022/01/17 11:10:07;;;;;;;5.68;3.83;;;;;;;;;;5052079;28;20544;-72
2022/01/17 11:12:33;;;;;;;5.47;3.42;;;;;;;;;;5055843;28;20047;-72
2022/01/17 11:14:58;;;;;;;4.00;3.38;;;;;;;;;;5053187;28;20087;-72
2022/01/17 11:17:33;;;;;;;5.93;3.80;;;;;;;;;;5060073;28;20063;-73
2022/01/17 11:20:04;;;;;;;5.75;3.85;;;;;;;;;;5068056;28;20033;-72
2022/01/17 11:22:30;;;;;;;4.63;3.67;;;;;;;;;;5055354;28;20434;-72
2022/01/17 11:24:57;;;;;;;6.28;3.90;;;;;;;;;;5056369;28;20086;-72
2022/01/17 11:27:22;;;;;;;5.20;3.55;;;;;;;;;;5055522;28;20134;-73
2022/01/17 11:29:48;;;;;;;4.88;3.95;;;;;;;;;;5052144;28;20491;-72
2022/01/17 11:32:14;;;;;;;4.82;3.60;;;;;;;;;;5052475;28;20577;-72
2022/01/17 11:34:39;;;;;;;6.88;3.85;;;;;;;;;;5052125;28;20060;-72
2022/01/17 11:37:04;;;;;;;4.72;3.22;;;;;;;;;;5053425;28;20108;-72
2022/01/17 11:39:30;;;;;;;4.47;3.78;;;;;;;;;;5055467;28;20040;-72
2022/01/17 11:41:55;;;;;;;5.63;3.58;;;;;;;;;;5036842;28;20028;-72
2022/01/17 11:44:31;;;;;;;5.13;3.38;;;;;;;;;;5055159;28;20055;-72
2022/01/17 11:46:59;;;;;;;5.22;3.53;;;;;;;;;;5052449;28;20029;-70
2022/01/17 11:49:26;;;;;;;5.03;3.00;;;;;;;;;;5051412;28;20032;-69
2022/01/17 11:51:51;;;;;;;4.03;3.20;;;;;;;;;;5055990;28;20033;-69
2022/01/17 11:54:23;;;;;;;4.60;3.13;;;;;;;;;;5051287;28;20100;-69
2022/01/17 11:56:56;;;;;;;8.27;3.17;;;;;;;;;;5052413;28;20024;-69
2022/01/17 11:59:42;;;;;;;5.75;3.38;;;;;;;;;;5055867;28;20036;-69
2022/01/17 12:02:10;;;;;;;5.03;3.38;;;;;;;;;;5051424;28;20033;-70
2022/01/17 12:04:35;;;;;;;3.70;3.17;;;;;;;;;;5052272;28;20116;-69
2022/01/17 12:07:01;;;;;;;4.22;3.05;;;;;;;;;;5052666;28;20413;-70
2022/01/17 12:09:27;;;;;;;5.72;3.28;;;;;;;;;;5054803;28;20025;-69
2022/01/17 12:11:55;;;;;;;4.40;3.40;;;;;;;;;;5055332;28;20033;-69
2022/01/17 12:14:30;;;;;;;6.20;3.42;;;;;;;;;;5053009;28;20020;-69
2022/01/17 12:17:20;;;;;;;4.45;2.90;;;;;;;;;;5067223;28;20083;-69
2022/01/17 12:20:09;;;;;;;6.43;3.20;;;;;;;;;;5051166;28;20021;-69
2022/01/17 12:22:43;;;;;;;3.03;2.53;;;;;;;;;;5053415;28;20650;-69
2022/01/17 12:25:24;;;;;;;5.15;2.60;;;;;;;;;;5053475;28;20042;-69
2022/01/17 12:27:50;;;;;;;3.45;2.78;;;;;;;;;;5052011;28;20036;-69
2022/01/17 12:30:16;;;;;;;3.83;2.67;;;;;;;;;;5050156;28;20029;-69
2022/01/17 12:32:45;;;;;;;4.82;2.80;;;;;;;;;;5052336;28;20029;-69
2022/01/17 12:35:22;;;;;;;3.20;2.47;;;;;;;;;;5051576;28;20051;-69
2022/01/17 12:37:51;;;;;;;5.10;3.25;;;;;;;;;;5048846;28;20024;-69
2022/01/17 12:40:33;;;;;;;6.05;2.78;;;;;;;;;;5038544;28;20047;-69
2022/01/17 12:43:08;;;;;;;2.97;2.20;;;;;;;;;;5050171;28;20063;-70
2022/01/17 12:45:43;;;;;;;4.28;2.55;;;;;;;;;;5054741;28;20041;-69
2022/01/17 12:48:12;;;;;;;2.42;2.22;;;;;;;;;;5067878;28;20028;-69
2022/01/17 12:50:38;;;;;;;2.20;2.00;;;;;;;;;;5051670;28;20495;-69
2022/01/17 12:53:05;;;;;;;5.90;2.03;;;;;;;;;;5051029;28;20509;-69
2022/01/17 12:55:41;;;;;;;2.88;2.40;;;;;;;;;;5054003;28;20672;-70
2022/01/17 12:58:15;;;;;;;2.20;1.70;;;;;;;;;;5048887;28;20561;-70
2022/01/17 13:01:04;;;;;;;2.70;1.85;;;;;;;;;;5031475;28;20041;-70
2022/01/17 13:03:33;;;;;;;2.33;2.00;;;;;;;;;;5040733;28;20574;-69
2022/01/17 13:05:59;;;;;;;3.65;2.47;;;;;;;;;;5053030;28;20028;-69
2022/01/17 13:08:24;;;;;;;3.78;2.28;;;;;;;;;;5039643;28;20020;-69
2022/01/17 13:10:50;;;;;;;4.82;2.50;;;;;;;;;;5051473;28;20036;-70
2022/01/17 13:13:17;;;;;;;5.95;2.80;;;;;;;;;;5054222;28;20051;-69
2022/01/17 13:15:58;;;;;;;6.43;2.88;;;;;;;;;;5068232;28;20036;-69
2022/01/17 13:18:23;;;;;;;2.65;2.10;;;;;;;;;;5052546;28;20037;-69
2022/01/17 13:20:49;;;;;;;4.75;2.42;;;;;;;;;;5052094;28;20033;-69
2022/01/17 13:23:18;;;;;;;3.03;2.63;;;;;;;;;;5052811;28;20976;-69
2022/01/17 13:25:43;;;;;;;3.20;2.45;;;;;;;;;;5050482;28;20028;-69
2022/01/17 13:28:09;;;;;;;3.03;2.38;;;;;;;;;;5049874;28;20379;-70
2022/01/17 13:30:35;;;;;;;3.63;2.70;;;;;;;;;;5049879;28;20550;-70
2022/01/17 13:33:04;;;;;;;3.15;2.75;;;;;;;;;;5050778;28;20067;-70
2022/01/17 13:35:30;;;;;;;3.40;2.47;;;;;;;;;;5052031;28;20048;-69
2022/01/17 13:38:25;;;;;;;2.58;2.20;;;;;;;;;;5048693;28;20074;-70
2022/01/17 13:40:56;;;;;;;3.08;2.40;;;;;;;;;;5038449;28;20470;-70
2022/01/17 13:43:22;;;;;;;2.33;2.10;;;;;;;;;;5049659;28;20487;-70
2022/01/17 13:45:55;;;;;;;3.00;2.28;;;;;;;;;;5035094;28;20039;-70
2022/01/17 13:48:25;;;;;;;2.10;1.90;;;;;;;;;;5056154;28;20082;-70
2022/01/17 13:50:58;;;;;;;2.67;2.40;;;;;;;;;;5065948;28;20036;-70
2022/01/17 13:53:25;;;;;;;2.65;2.20;;;;;;;;;;5054720;28;20029;-70
2022/01/17 13:55:52;;;;;;;2.30;1.80;;;;;;;;;;5051422;28;20121;-70
2022/01/17 13:58:18;;;;;;;1.98;1.88;;;;;;;;;;5048798;28;20032;-69
2022/01/17 14:00:44;;;;;;;2.30;2.10;;;;;;;;;;5047521;28;20177;-70
2022/01/17 14:03:11;;;;;;;2.35;1.65;;;;;;;;;;5052340;28;20035;-69
2022/01/17 14:05:38;;;;;;;2.17;1.90;;;;;;;;;;5048987;28;20572;-69
2022/01/17 14:08:17;;;;;;;1.88;1.77;;;;;;;;;;5050948;28;20037;-70
2022/01/17 14:10:58;;;;;;;2.42;1.90;;;;;;;;;;5049066;28;20072;-70
2022/01/17 14:13:24;;;;;;;2.92;2.53;;;;;;;;;;5054150;28;20036;-70
2022/01/17 14:15:49;;;;;;;2.22;2.03;;;;;;;;;;5051207;28;20498;-70
2022/01/17 14:18:15;;;;;;;2.55;2.30;;;;;;;;;;5051396;28;20059;-68
2022/01/17 14:20:55;;;;;;;2.92;2.63;;;;;;;;;;5049187;28;20068;-70
2022/01/17 14:23:36;;;;;;;3.20;2.38;;;;;;;;;;5051596;28;20380;-70
2022/01/17 14:26:01;;;;;;;4.30;2.28;;;;;;;;;;5047609;28;20035;-70
2022/01/17 14:28:28;;;;;;;3.50;2.60;;;;;;;;;;5048170;28;20040;-70
2022/01/17 14:30:53;;;;;;;3.92;2.85;;;;;;;;;;5048542;28;21950;-70
2022/01/17 14:33:20;;;;;;;3.13;2.55;;;;;;;;;;5052044;28;20044;-69
2022/01/17 14:36:05;;;;;;;3.85;2.80;;;;;;;;;;5050226;28;20048;-69
2022/01/17 14:38:30;;;;;;;3.67;2.63;;;;;;;;;;5048618;28;20028;-69
2022/01/17 14:40:55;;;;;;;2.90;2.40;;;;;;;;;;5049875;28;20737;-70
2022/01/17 14:43:29;;;;;;;5.03;2.80;;;;;;;;;;5048330;28;20029;-70
2022/01/17 14:45:54;;;;;;;3.53;3.23;;;;;;;;;;5050601;28;20036;-69
2022/01/17 14:48:22;;;;;;;5.10;3.40;;;;;;;;;;5035430;28;20067;-69
2022/01/17 14:50:47;;;;;;;5.40;3.13;;;;;;;;;;5052378;28;20039;-70
2022/01/17 14:53:17;;;;;;;8.30;2.83;;;;;;;;;;5052025;28;20099;-70
2022/01/17 14:59:27;;;;;;;5.60;2.92;;;;;;;;;;5052591;28;20031;-70
2022/01/17 15:01:22;;;;;;;5.70;3.45;;;;;;;;;;5051037;28;20070;-69
2022/01/17 15:03:59;;;;;;;5.60;3.58;;;;;;;;;;5054549;28;20020;-70
2022/01/17 15:06:24;;;;;;;5.72;3.90;;;;;;;;;;5049002;28;20048;-70
2022/01/17 15:08:51;;;;;;;6.53;3.50;;;;;;;;;;5049607;28;20039;-69
2022/01/17 15:11:16;;;;;;;4.00;3.20;;;;;;;;;;5052464;28;20115;-70
2022/01/17 15:13:42;;;;;;;5.25;3.40;;;;;;;;;;5049187;28;20036;-69